• Join FlightAware (Why Join?)
  • Login
  • US Flag 
10:57AM EDT


 

Airport Tracker/Info


-or-


 

Live Flight TrackerFlight Track Log ✈ UAL978 ✈ 25-Oct-2013 ✈ SBGR / GRU - KIAH

Flight Track Log - Related Links

Times and Time Zones

All times are in EDT time to prevent confusion due to time zone crossing. See the UAL978 flight status page for this flight to view local times or setup timezone preferences in your user account.

Time Position Orientation Groundspeed Altitude Reporting Facility
EDT Latitude Longitude Course Direction KTS MPH feet Rate Location/Type
08:06PM -23.4320 -46.4870 270° West  Level FlightAware
08:06PM -23.4320 -46.4860 90° East 300 Level FlightAware
08:09PM -23.2628 -46.7202 301° West  Level FlightAware Approximate
08:14PM -23.4310 -46.4710 75° East 150 173  Level FlightAware
08:15PM -23.4230 -46.4400 74° East 185 213 3,100 4,020 Climbing FlightAware
08:15PM -23.4200 -46.4230 79° East 185 213 3,800 1,920 Climbing FlightAware
08:16PM -23.4360 -46.4010 128° Southeast 192 221 4,700 1,260 Climbing FlightAware
08:16PM -23.4650 -46.4080 192° South 239 275 5,100 1,080 Climbing FlightAware
08:17PM -23.4790 -46.4430 246° West 272 313 5,800 1,560 Climbing FlightAware
08:17PM -23.4890 -46.4700 248° West 278 320 6,400 1,800 Climbing FlightAware
08:18PM -23.5150 -46.5030 229° Southwest 294 338 7,400 2,220 Climbing FlightAware
08:18PM -23.5430 -46.5400 230° Southwest 288 331 8,800 2,220 Climbing FlightAware
08:19PM -23.5630 -46.5670 231° Southwest 298 343 9,600 2,400 Climbing FlightAware
08:19PM -23.5750 -46.5930 243° Southwest 298 343 10,400 1,620 Climbing FlightAware
08:20PM -23.5740 -46.6640 271° West 342 394 11,200 1,140 Climbing FlightAware
08:21PM -23.5640 -46.7680 276° West 383 441 12,400 1,260 Climbing FlightAware
08:21PM -23.5560 -46.8590 275° West 412 474 13,400 1,620 Climbing FlightAware
08:22PM -23.5450 -46.9830 276° West 425 489 15,300 1,680 Climbing FlightAware
08:23PM -23.5330 -47.0990 276° West 444 511 16,700 1,680 Climbing FlightAware
08:24PM -23.5220 -47.2150 276° West 450 518 18,300 1,680 Climbing FlightAware
08:25PM -23.5100 -47.3320 276° West 461 531 19,600 1,440 Climbing FlightAware
08:26PM -23.4850 -47.4070 290° West 463 533 20,400 1,320 Climbing FlightAware
08:26PM -23.4300 -47.4890 306° West 469 540 21,400 1,320 Climbing FlightAware
08:27PM -23.4020 -47.5640 292° West 472 543 22,100 1,320 Climbing FlightAware
08:28PM -23.3930 -47.6560 276° West 473 544 23,000 1,260 Climbing FlightAware
08:28PM -23.3880 -47.7130 275° West 478 550 23,500 1,200 Climbing FlightAware
08:28PM -23.3720 -47.7720 286° West 482 555 24,000 1,500 Climbing FlightAware
08:29PM -23.3150 -47.8800 300° West 480 552 25,400 1,200 Climbing FlightAware
08:30PM -23.2590 -47.9830 301° West 472 543 26,000 780 Climbing FlightAware
08:31PM -23.1980 -48.0810 304° West 473 544 26,700 960 Climbing FlightAware
08:32PM -23.1380 -48.1480 314° West 475 547 27,500 1,260 Climbing FlightAware
08:32PM -23.0620 -48.2350 314° West 474 545 28,600 1,080 Climbing FlightAware
08:33PM -22.9970 -48.3110 313° West 476 548 29,300 840 Climbing FlightAware
08:34PM -22.9120 -48.4110 313° West 477 549 30,000 420 Climbing FlightAware
08:35PM -22.8440 -48.4910 313° West 477 549 30,000  Level FlightAware
08:36PM -22.7740 -48.5730 313° West 480 552 30,000  Level FlightAware
08:37PM -22.6740 -48.6890 313° West 481 554 30,000  Level FlightAware
08:37PM -22.6020 -48.7720 313° West 483 556 30,000  Level FlightAware
08:38PM -22.5300 -48.8550 313° West 482 555 30,000  Level FlightAware
08:39PM -22.4480 -48.9500 313° West 482 555 30,000  Level FlightAware
08:40PM -22.3820 -49.0260 313° West 480 552 30,000  Level FlightAware
08:41PM -22.3110 -49.1080 313° West 478 550 30,000  Level FlightAware
08:41PM -22.2460 -49.1810 314° West 477 549 30,000  Level FlightAware
08:42PM -22.1670 -49.2680 314° West 475 547 30,000  Level FlightAware
08:43PM -22.0910 -49.3530 314° West 475 547 30,000  Level FlightAware
08:44PM -22.0240 -49.4280 314° West 474 545 30,000  Level FlightAware
08:44PM -21.9870 -49.4690 314° West 474 545 30,000  Level FlightAware
08:45PM -21.9050 -49.5610 314° West 473 544 30,000  Level FlightAware
08:45PM -21.8710 -49.5970 315° West 473 544 30,000  Level FlightAware
08:46PM -21.8170 -49.6570 314° West 474 545 30,000  Level FlightAware
08:47PM -21.7410 -49.7420 314° West 473 544 30,000  Level FlightAware
08:47PM -21.6860 -49.8030 314° West 473 544 30,000  Level FlightAware
08:48PM -21.6040 -49.8940 314° West 475 547 30,000  Level FlightAware
08:49PM -21.5290 -49.9770 314° West 477 549 30,000  Level FlightAware
08:50PM -21.4470 -50.0670 314° West 479 551 30,000  Level FlightAware
08:51PM -21.3670 -50.1550 314° West 480 552 30,000  Level FlightAware
08:51PM -21.3430 -50.1830 313° West 481 554 30,000  Level FlightAware
08:52PM -21.2520 -50.2840 314° West 481 554 30,000  Level FlightAware
08:53PM -21.2010 -50.3410 314° West 482 555 30,000  Level FlightAware
08:54PM -21.0990 -50.4550 314° West 483 556 30,000  Level FlightAware
08:55PM -21.0270 -50.5350 314° West 484 557 30,000  Level FlightAware
08:55PM -20.9610 -50.6080 314° West 485 558 30,000  Level FlightAware
08:56PM -20.8690 -50.7100 314° West 486 559 30,000  Level FlightAware
08:57PM -20.8310 -50.7520 314° West 486 559 30,000  Level FlightAware
08:57PM -20.7760 -50.8110 315° West 484 557 30,000  Level FlightAware
08:59PM -20.6160 -50.9820 317° Northwest 485 558 30,000  Level FlightAware
09:00PM -20.5746 -51.0111 317° Northwest  Level FlightAware Approximate
09:00PM -20.5310 -51.0720 315° West 484 557 30,000  Level FlightAware
09:01PM -20.4590 -51.1490 315° West 482 555 30,000  Level FlightAware
09:01PM -20.4400 -51.1680 317° Northwest 482 555 30,000  Level FlightAware
09:02PM -20.3870 -51.2260 314° West 482 555 30,000  Level FlightAware
09:03PM -20.3210 -51.2960 315° West 482 555 30,000  Level FlightAware
09:04PM -20.2880 -51.3310 315° West 482 555 30,000  Level FlightAware
09:05PM -19.9390 -51.5240 333° Northwest 471 542 30,000  Level FlightAware
09:07PM -19.8110 -51.6050 329° Northwest 476 548 30,000  Level FlightAware
09:07PM -19.7540 -51.6420 329° Northwest 476 548 30,000  Level FlightAware
09:08PM -19.6430 -51.7100 330° Northwest 482 555 30,000  Level FlightAware
09:09PM -19.5850 -51.7470 329° Northwest 482 555 30,000  Level FlightAware
09:10PM -19.4870 -51.8100 329° Northwest 482 555 30,000  Level FlightAware
09:10PM -19.4290 -51.8470 329° Northwest 482 555 30,000  Level FlightAware
09:11PM -19.3310 -51.9020 332° Northwest 30,000  Level FlightAware
09:14PM -19.0667 -52.1469 319° Northwest  Level Estimated
09:15PM -18.9755 -52.2311 319° Northwest  Level Estimated
09:15PM -18.7870 -52.2620 319° Northwest 476 548 30,000  Level FlightAware
09:16PM -18.8842 -52.3153 319° Northwest  Level Estimated
09:16PM -18.6990 -52.3420 319° Northwest 475 547 30,000  Level FlightAware
09:17PM -18.6590 -52.3790 319° Northwest 475 547 30,000  Level FlightAware
09:18PM -18.5630 -52.4670 319° Northwest 474 545 30,000 780 Level FlightAware
09:19PM -18.4630 -52.5590 319° Northwest 473 544 31,500 1,140 Climbing FlightAware
09:20PM -18.3740 -52.6370 320° Northwest 472 543 32,000 360 Climbing FlightAware
09:20PM -18.3290 -52.6630 331° Northwest 472 543 32,000  Level FlightAware
09:21PM -18.2570 -52.7020 333° Northwest 473 544 32,000  Level FlightAware
09:21PM -18.1520 -52.7540 335° Northwest 477 549 32,000  Level FlightAware
09:22PM -18.0990 -52.7720 342° North 478 550 32,000  Level FlightAware
09:23PM -18.0280 -52.7970 341° North 478 550 32,000  Level FlightAware
09:23PM -17.9160 -52.8370 341° North 477 549 32,000  Level FlightAware
09:24PM -17.8520 -52.8600 341° North 477 549 32,000  Level FlightAware
09:25PM -17.7430 -52.8990 341° North 477 549 32,000  Level FlightAware
09:26PM -17.6370 -52.9380 341° North 477 549 32,000  Level FlightAware
09:27PM -17.5310 -52.9760 341° North 477 549 32,000  Level FlightAware
09:28PM -17.4670 -52.9990 341° North 477 549 32,000  Level FlightAware
09:28PM -17.3820 -53.0300 341° North 477 549 32,000  Level FlightAware
09:29PM -17.2970 -53.0600 341° North 477 549 32,000  Level FlightAware
09:30PM -17.2100 -53.0920 341° North 477 549 32,000  Level FlightAware
09:31PM -17.1460 -53.1150 341° North 477 549 32,000  Level FlightAware
09:31PM -17.0820 -53.1380 341° North 477 549 32,000  Level FlightAware
09:32PM -16.9760 -53.1760 341° North 477 549 32,000  Level FlightAware
09:35PM -16.7662 -53.3674 319° Northwest  Level Estimated
09:36PM -16.6749 -53.4505 319° Northwest  Level Estimated
09:37PM -16.5835 -53.5335 319° Northwest  Level Estimated
09:38PM -16.4922 -53.6164 319° Northwest  Level Estimated
09:39PM -16.4008 -53.6993 319° Northwest  Level Estimated
09:40PM -16.3094 -53.7821 319° Northwest  Level Estimated
09:41PM -16.2179 -53.8647 319° Northwest  Level Estimated
09:42PM -16.1265 -53.9474 319° Northwest  Level Estimated
09:43PM -16.0350 -54.0299 319° Northwest  Level Estimated
09:44PM -15.9434 -54.1124 319° Northwest  Level Estimated
09:45PM -15.8518 -54.1948 319° Northwest  Level Estimated
09:46PM -15.7602 -54.2771 319° Northwest  Level Estimated
09:47PM -15.6686 -54.3593 319° Northwest  Level Estimated
09:48PM -15.5769 -54.4415 319° Northwest  Level Estimated
09:49PM -15.4852 -54.5236 319° Northwest  Level Estimated
09:50PM -15.3935 -54.6056 319° Northwest  Level Estimated
09:51PM -15.3017 -54.6876 319° Northwest  Level Estimated
09:52PM -15.2099 -54.7695 319° Northwest  Level Estimated
09:53PM -15.1181 -54.8513 319° Northwest  Level Estimated
09:54PM -15.0262 -54.9330 319° Northwest  Level Estimated
09:55PM -14.9344 -55.0147 319° Northwest  Level Estimated
09:56PM -14.8425 -55.0963 319° Northwest  Level Estimated
09:57PM -14.7505 -55.1778 319° Northwest  Level Estimated
09:58PM -14.6586 -55.2593 319° Northwest  Level Estimated
09:59PM -14.5666 -55.3406 319° Northwest  Level Estimated
10:00PM -14.4745 -55.4220 319° Northwest  Level Estimated
10:01PM -14.3825 -55.5032 319° Northwest  Level Estimated
10:02PM -14.2904 -55.5844 319° Northwest  Level Estimated
10:03PM -14.1983 -55.6655 320° Northwest  Level Estimated
10:04PM -14.1062 -55.7466 320° Northwest  Level Estimated
10:05PM -14.0140 -55.8276 320° Northwest  Level Estimated
10:06PM -13.9218 -55.9085 320° Northwest  Level Estimated
10:07PM -13.8296 -55.9894 320° Northwest  Level Estimated
10:08PM -13.7374 -56.0702 320° Northwest  Level Estimated
10:09PM -13.6451 -56.1509 320° Northwest  Level Estimated
10:10PM -13.5528 -56.2316 320° Northwest  Level Estimated
10:11PM -13.4605 -56.3122 320° Northwest  Level Estimated
10:12PM -13.3682 -56.3927 320° Northwest  Level Estimated
10:13PM -13.2758 -56.4732 320° Northwest  Level Estimated
10:14PM -13.1834 -56.5536 320° Northwest  Level Estimated
10:15PM -13.0910 -56.6340 320° Northwest  Level Estimated
10:16PM -12.9985 -56.7143 320° Northwest  Level Estimated
10:17PM -12.9061 -56.7945 320° Northwest  Level Estimated
10:18PM -12.8136 -56.8747 320° Northwest  Level Estimated
10:19PM -12.7211 -56.9548 320° Northwest  Level Estimated
10:20PM -12.6285 -57.0349 320° Northwest  Level Estimated
10:21PM -12.5360 -57.1149 320° Northwest  Level Estimated
10:22PM -12.4434 -57.1948 320° Northwest  Level Estimated
10:23PM -12.3508 -57.2747 320° Northwest  Level Estimated
10:24PM -12.2581 -57.3546 320° Northwest  Level Estimated
10:25PM -12.1655 -57.4343 320° Northwest  Level Estimated
10:26PM -12.0728 -57.5141 320° Northwest  Level Estimated
10:27PM -11.9801 -57.5937 320° Northwest  Level Estimated
10:28PM -11.8874 -57.6733 320° Northwest  Level Estimated
10:29PM -11.7946 -57.7529 320° Northwest  Level Estimated
10:30PM -11.7018 -57.8324 320° Northwest  Level Estimated
10:31PM -11.6090 -57.9119 320° Northwest  Level Estimated
10:32PM -11.5162 -57.9913 320° Northwest  Level Estimated
10:33PM -11.4234 -58.0706 320° Northwest  Level Estimated
10:34PM -11.3305 -58.1499 320° Northwest  Level Estimated
10:35PM -11.2376 -58.2291 320° Northwest  Level Estimated
10:36PM -11.1447 -58.3083 320° Northwest  Level Estimated
10:37PM -11.0518 -58.3875 320° Northwest  Level Estimated
10:38PM -10.9589 -58.4666 320° Northwest  Level Estimated
10:39PM -10.8659 -58.5456 320° Northwest  Level Estimated
10:40PM -10.7730 -58.6246 320° Northwest  Level Estimated
10:41PM -10.6799 -58.7035 320° Northwest  Level Estimated
10:42PM -10.5869 -58.7824 320° Northwest  Level Estimated
10:43PM -10.4939 -58.8613 320° Northwest  Level Estimated
10:44PM -10.4008 -58.9401 320° Northwest  Level Estimated
10:45PM -10.3077 -59.0188 320° Northwest  Level Estimated
10:46PM -10.2147 -59.0975 320° Northwest  Level Estimated
10:47PM -10.1215 -59.1762 320° Northwest  Level Estimated
10:48PM -10.0284 -59.2548 320° Northwest  Level Estimated
10:49PM -9.9352 -59.3334 320° Northwest  Level Estimated
10:50PM -9.8421 -59.4119 320° Northwest  Level Estimated
10:51PM -9.7489 -59.4904 320° Northwest  Level Estimated
10:52PM -9.6557 -59.5689 320° Northwest  Level Estimated
10:53PM -9.5624 -59.6472 320° Northwest  Level Estimated
10:54PM -9.4692 -59.7256 320° Northwest  Level Estimated
10:55PM -9.3759 -59.8039 320° Northwest  Level Estimated
10:56PM -9.2827 -59.8822 320° Northwest  Level Estimated
10:57PM -9.1894 -59.9604 320° Northwest  Level Estimated
10:58PM -9.0961 -60.0386 320° Northwest  Level Estimated
10:59PM -9.0029 -60.1166 320° Northwest  Level Estimated
11:00PM -8.9097 -60.1945 320° Northwest  Level Estimated
11:01PM -8.8165 -60.2725 320° Northwest  Level Estimated
11:02PM -8.7233 -60.3504 320° Northwest  Level Estimated
11:03PM -8.6300 -60.4282 320° Northwest  Level Estimated
11:04PM -8.5368 -60.5060 320° Northwest  Level Estimated
11:05PM -8.4435 -60.5838 320° Northwest  Level Estimated
11:06PM -8.3502 -60.6615 320° Northwest  Level Estimated
11:07PM -8.2569 -60.7393 321° Northwest  Level Estimated
11:08PM -8.1636 -60.8169 321° Northwest  Level Estimated
11:09PM -8.0703 -60.8945 321° Northwest  Level Estimated
11:10PM -7.9770 -60.9721 321° Northwest  Level Estimated
11:11PM -7.8836 -61.0497 321° Northwest  Level Estimated
11:12PM -7.7902 -61.1272 321° Northwest  Level Estimated
11:13PM -7.6967 -61.2048 321° Northwest  Level Estimated
11:14PM -7.6031 -61.2824 321° Northwest  Level Estimated
11:15PM -7.5096 -61.3600 321° Northwest  Level Estimated
11:16PM -7.4160 -61.4375 321° Northwest  Level Estimated
11:17PM -7.3224 -61.5150 321° Northwest  Level Estimated
11:18PM -7.2288 -61.5924 321° Northwest  Level Estimated
11:19PM -7.1351 -61.6698 321° Northwest  Level Estimated
11:20PM -7.0415 -61.7472 321° Northwest  Level Estimated
11:21PM -6.9479 -61.8246 321° Northwest  Level Estimated
11:22PM -6.8542 -61.9019 321° Northwest  Level Estimated
11:23PM -6.7605 -61.9792 321° Northwest  Level Estimated
11:24PM -6.6670 -62.0564 321° Northwest  Level Estimated
11:24PM -3.4740 -60.6140 321° Northwest 482 555 32,000  Level FlightAware
11:24PM -3.3970 -60.6450 338° Northwest 482 555 32,000  Level FlightAware
11:25PM -6.5733 -62.1336 321° Northwest  Level Estimated
11:25PM -3.2840 -60.6920 337° Northwest 480 552 32,000  Level FlightAware
11:26PM -3.2090 -60.7230 338° Northwest 481 554 32,000  Level FlightAware
11:26PM -3.1470 -60.7480 338° Northwest 480 552 32,000  Level FlightAware
11:27PM -3.0850 -60.7740 337° Northwest 480 552 32,000  Level FlightAware
11:27PM -3.0100 -60.8020 340° North 480 552 32,000  Level FlightAware
11:28PM -2.9070 -60.8390 340° North 480 552 32,000  Level FlightAware
11:29PM -2.8060 -60.8730 341° North 481 554 32,000  Level FlightAware
11:29PM -2.7480 -60.8920 342° North 480 552 32,000  Level FlightAware
11:30PM -2.6670 -60.9040 352° North 478 550 32,000  Level FlightAware
11:31PM -2.5650 -60.9120 356° North 480 552 32,000  Level FlightAware
11:31PM -2.4810 -60.9300 348° North 483 556 32,000  Level FlightAware
11:33PM -2.3490 -60.9840 338° Northwest 483 556 32,000  Level FlightAware
11:33PM -2.2800 -61.0230 331° Northwest 483 556 32,000  Level FlightAware
11:34PM -2.2010 -61.0840 322° Northwest 484 557 32,000  Level FlightAware
11:35PM -2.0990 -61.1720 319° Northwest 482 555 32,000  Level FlightAware
11:36PM -2.0230 -61.2430 317° Northwest 481 554 32,000  Level FlightAware
11:37PM -1.9410 -61.3250 315° West 481 554 32,000  Level FlightAware
11:38PM -1.8610 -61.4050 315° West 481 554 32,000  Level FlightAware
11:38PM -1.8290 -61.4380 314° West 481 554 32,000  Level FlightAware
11:39PM -1.7810 -61.4860 315° West 481 554 32,000  Level FlightAware
11:40PM -1.7010 -61.5660 315° West 481 554 32,000  Level FlightAware
11:40PM -1.6690 -61.5980 315° West 481 554 32,000  Level FlightAware
11:41PM -1.6070 -61.6600 315° West 481 554 32,000  Level FlightAware
11:42PM -1.5270 -61.7400 315° West 481 554 32,000  Level FlightAware
11:43PM -1.4470 -61.8200 315° West 481 554 32,000  Level FlightAware
11:44PM -1.3650 -61.9020 315° West 481 554 32,000  Level FlightAware
11:45PM -1.2990 -61.9670 315° West 481 554 32,000  Level FlightAware
11:45PM -1.2660 -62.0010 314° West 481 554 32,000  Level FlightAware
11:46PM -1.2340 -62.0330 315° West 481 554 32,000  Level FlightAware
11:49PM -0.9675 -62.2790 317° Northwest  Level Estimated
11:50PM -0.8788 -62.3609 317° Northwest  Level Estimated
11:51PM -0.7901 -62.4428 317° Northwest  Level Estimated
11:52PM -0.7014 -62.5247 317° Northwest  Level Estimated
11:53PM -0.6127 -62.6065 317° Northwest  Level Estimated
11:54PM -0.5240 -62.6884 317° Northwest  Level Estimated
11:55PM -0.4353 -62.7702 317° Northwest  Level Estimated
11:56PM -0.3466 -62.8521 317° Northwest  Level Estimated
11:57PM -0.2579 -62.9339 317° Northwest  Level Estimated
11:58PM -0.1692 -63.0158 317° Northwest  Level Estimated
11:59PM -0.0805 -63.0976 317° Northwest  Level Estimated
12:00AM 0.0082 -63.1795 317° Northwest  Level Estimated
12:01AM 0.0969 -63.2613 317° Northwest  Level Estimated
12:02AM 0.1856 -63.3432 317° Northwest  Level Estimated
12:03AM 0.2743 -63.4250 317° Northwest  Level Estimated
12:04AM 0.3630 -63.5069 317° Northwest  Level Estimated
12:05AM 0.4517 -63.5887 317° Northwest  Level Estimated
12:06AM 0.5404 -63.6706 317° Northwest  Level Estimated
12:07AM 0.6291 -63.7524 317° Northwest  Level Estimated
12:08AM 0.7177 -63.8343 317° Northwest  Level Estimated
12:09AM 0.8066 -63.9163 317° Northwest  Level Estimated
12:10AM 0.8954 -63.9983 317° Northwest  Level Estimated
12:11AM 0.9843 -64.0803 317° Northwest  Level Estimated
12:12AM 1.0731 -64.1623 317° Northwest  Level Estimated
12:13AM 1.1619 -64.2443 317° Northwest  Level Estimated
12:14AM 1.2508 -64.3263 317° Northwest  Level Estimated
12:15AM 1.3394 -64.4082 317° Northwest  Level Estimated
12:16AM 1.4281 -64.4901 317° Northwest  Level Estimated
12:17AM 1.5168 -64.5720 317° Northwest  Level Estimated
12:18AM 1.6055 -64.6540 317° Northwest  Level Estimated
12:19AM 1.6941 -64.7359 317° Northwest  Level Estimated
12:20AM 1.7828 -64.8178 317° Northwest  Level Estimated
12:21AM 1.8714 -64.8997 317° Northwest  Level Estimated
12:22AM 1.9601 -64.9817 317° Northwest  Level Estimated
12:23AM 2.0488 -65.0636 317° Northwest  Level Estimated
12:24AM 2.1374 -65.1456 317° Northwest  Level Estimated
12:25AM 2.2260 -65.2275 317° Northwest  Level Estimated
12:26AM 2.3147 -65.3095 317° Northwest  Level Estimated
12:27AM 2.4033 -65.3915 317° Northwest  Level Estimated
12:28AM 2.4920 -65.4735 317° Northwest  Level Estimated
12:29AM 2.5806 -65.5555 317° Northwest  Level Estimated
12:30AM 2.6692 -65.6375 317° Northwest  Level Estimated
12:31AM 2.7578 -65.7196 317° Northwest  Level Estimated
12:32AM 2.8464 -65.8016 317° Northwest  Level Estimated
12:33AM 2.9350 -65.8837 317° Northwest  Level Estimated
12:34AM 3.0236 -65.9657 317° Northwest  Level Estimated
12:35AM 3.1122 -66.0478 317° Northwest  Level Estimated
12:36AM 3.2008 -66.1299 317° Northwest  Level Estimated
12:37AM 3.2894 -66.2120 317° Northwest  Level Estimated
12:38AM 3.3779 -66.2942 317° Northwest  Level Estimated
12:39AM 3.4665 -66.3763 317° Northwest  Level Estimated
12:40AM 3.5550 -66.4585 317° Northwest  Level Estimated
12:41AM 3.6436 -66.5406 317° Northwest  Level Estimated
12:42AM 3.7321 -66.6228 317° Northwest  Level Estimated
12:43AM 3.8207 -66.7050 317° Northwest  Level Estimated
12:44AM 3.9092 -66.7872 317° Northwest  Level Estimated
12:45AM 3.9977 -66.8695 317° Northwest  Level Estimated
12:46AM 4.0862 -66.9517 317° Northwest  Level Estimated
12:47AM 4.1747 -67.0340 317° Northwest  Level Estimated
12:48AM 4.2632 -67.1163 317° Northwest  Level Estimated
12:49AM 4.3517 -67.1986 317° Northwest  Level Estimated
12:50AM 4.4402 -67.2810 317° Northwest  Level Estimated
12:51AM 4.5286 -67.3633 317° Northwest  Level Estimated
12:52AM 4.6171 -67.4457 317° Northwest  Level Estimated
12:53AM 4.7056 -67.5281 317° Northwest  Level Estimated
12:54AM 4.7940 -67.6105 317° Northwest  Level Estimated
12:55AM 4.8824 -67.6929 317° Northwest  Level Estimated
12:56AM 4.9708 -67.7754 317° Northwest  Level Estimated
12:57AM 5.0593 -67.8578 317° Northwest  Level Estimated
12:58AM 5.1477 -67.9403 317° Northwest  Level Estimated
12:59AM 5.2361 -68.0229 317° Northwest  Level Estimated
01:00AM 5.3244 -68.1054 317° Northwest  Level Estimated
01:01AM 5.4128 -68.1880 317° Northwest  Level Estimated
01:02AM 5.5011 -68.2706 317° Northwest  Level Estimated
01:03AM 5.5895 -68.3532 317° Northwest  Level Estimated
01:04AM 5.6778 -68.4358 317° Northwest  Level Estimated
01:05AM 5.7661 -68.5185 317° Northwest  Level Estimated
01:06AM 5.8544 -68.6012 317° Northwest  Level Estimated
01:07AM 5.9427 -68.6839 317° Northwest  Level Estimated
01:08AM 6.0310 -68.7667 317° Northwest  Level Estimated
01:09AM 6.1193 -68.8495 317° Northwest  Level Estimated
01:10AM 6.2075 -68.9323 317° Northwest  Level Estimated
01:11AM 6.2958 -69.0151 317° Northwest  Level Estimated
01:12AM 6.3840 -69.0980 317° Northwest  Level Estimated
01:13AM 6.4722 -69.1808 317° Northwest  Level Estimated
01:14AM 6.5604 -69.2638 317° Northwest  Level Estimated
01:15AM 6.6485 -69.3466 317° Northwest  Level Estimated
01:16AM 6.7365 -69.4294 317° Northwest  Level Estimated
01:17AM 6.8245 -69.5123 317° Northwest  Level Estimated
01:18AM 6.9125 -69.5952 317° Northwest  Level Estimated
01:19AM 7.0005 -69.6781 317° Northwest  Level Estimated
01:20AM 7.0885 -69.7611 317° Northwest  Level Estimated
01:21AM 7.1764 -69.8441 317° Northwest  Level Estimated
01:22AM 7.2644 -69.9271 317° Northwest  Level Estimated
01:23AM 7.3523 -70.0101 317° Northwest  Level Estimated
01:24AM 7.4402 -70.0932 317° Northwest  Level Estimated
01:25AM 7.5281 -70.1763 317° Northwest  Level Estimated
01:26AM 7.6160 -70.2595 317° Northwest  Level Estimated
01:27AM 7.7038 -70.3427 317° Northwest  Level Estimated
01:28AM 7.7917 -70.4259 317° Northwest  Level Estimated
01:29AM 7.8797 -70.5093 317° Northwest  Level Estimated
01:30AM 7.9676 -70.5927 317° Northwest  Level Estimated
01:31AM 8.0556 -70.6762 317° Northwest  Level Estimated
01:32AM 8.1435 -70.7597 317° Northwest  Level Estimated
01:33AM 8.2314 -70.8432 317° Northwest  Level Estimated
01:33AM 9.7240 -71.1320 317° Northwest 458 527 34,000  Level FlightAware
01:34AM 8.3192 -70.9267 317° Northwest  Level Estimated
01:34AM 9.7740 -71.1730 321° Northwest 458 527 34,000  Level FlightAware
01:35AM 9.8280 -71.2190 320° Northwest 458 527 34,000  Level FlightAware
01:35AM 9.8780 -71.2610 320° Northwest 458 527 34,000  Level FlightAware
01:37AM 10.0860 -71.3940 328° Northwest 472 543 34,000  Level FlightAware
01:38AM 10.2310 -71.4890 327° Northwest 446 513 34,000  Level FlightAware
01:39AM 10.2680 -71.5130 327° Northwest 444 511 34,000  Level FlightAware
01:40AM 10.3940 -71.6000 326° Northwest 444 511 34,000  Level FlightAware
01:41AM 10.4920 -71.6640 327° Northwest 446 513 34,000  Level FlightAware
01:42AM 10.5940 -71.7310 327° Northwest 443 510 34,000  Level FlightAware
01:42AM 10.6430 -71.7650 326° Northwest 443 510 34,000  Level FlightAware
01:43AM 10.7300 -71.8240 326° Northwest 443 510 34,000  Level FlightAware
01:44AM 10.7820 -71.8600 326° Northwest 443 510 34,000  Level FlightAware
01:44AM 10.8830 -71.9290 326° Northwest 540 621 34,000  Level FlightAware
01:47AM 11.0539 -72.1049 315° West  Level Estimated
01:47AM 11.1570 -72.1190 315° West 446 513 34,000  Level FlightAware
01:48AM 11.1386 -72.1923 315° West  Level Estimated
01:48AM 11.1920 -72.1440 325° Northwest 446 513 34,000  Level FlightAware
01:48AM 11.2540 -72.1850 327° Northwest 34,000  Level FlightAware
01:49AM 11.3030 -72.2180 327° Northwest 447 514 34,000  Level FlightAware
01:49AM 11.3760 -72.2690 326° Northwest 447 514 34,000  Level FlightAware
01:50AM 11.4110 -72.2930 326° Northwest 447 514 34,000  Level FlightAware
01:50AM 11.4630 -72.3290 326° Northwest 447 514 34,000  Level FlightAware
01:51AM 11.5210 -72.3560 335° Northwest 34,000  Level FlightAware
01:52AM 11.6840 -72.4600 328° Northwest 462 532 34,000  Level FlightAware
01:53AM 11.7330 -72.4920 327° Northwest 438 504 34,000  Level FlightAware
01:54AM 11.8560 -72.5730 327° Northwest 438 504 34,000  Level FlightAware
01:55AM 11.9080 -72.6080 327° Northwest 438 504 34,000  Level FlightAware
01:55AM 11.9600 -72.6420 327° Northwest 438 504 34,000  Level FlightAware
01:56AM 12.0640 -72.7110 327° Northwest 438 504 34,000  Level FlightAware
01:57AM 12.2100 -72.8180 324° Northwest 432 497 34,000  Level FlightAware
01:58AM 12.2600 -72.8540 325° Northwest 432 497 34,000  Level FlightAware
01:59AM 12.3130 -72.8920 325° Northwest 432 497 34,000  Level FlightAware
02:00AM 12.3960 -72.9520 325° Northwest 432 497 34,000  Level FlightAware
02:01AM 12.5450 -73.0450 329° Northwest 440 506 34,000  Level FlightAware
02:01AM 12.5850 -73.0720 327° Northwest 440 506 34,000  Level FlightAware
02:02AM 12.6560 -73.1210 326° Northwest 440 506 34,000  Level FlightAware
02:03AM 12.7070 -73.1570 325° Northwest 440 506 34,000  Level FlightAware
02:03AM 12.7420 -73.1800 327° Northwest 440 506 34,000  Level FlightAware
02:04AM 12.8480 -73.2540 326° Northwest 440 506 34,000  Level FlightAware
02:05AM 12.9000 -73.2900 326° Northwest 440 506 34,000  Level FlightAware
02:05AM 12.9530 -73.3260 326° Northwest 440 506 34,000  Level FlightAware
02:06AM 13.0040 -73.3620 325° Northwest 440 506 34,000  Level FlightAware
02:06AM 13.0400 -73.3870 326° Northwest 440 506 34,000  Level FlightAware
02:07AM 13.0920 -73.4230 326° Northwest 440 506 34,000  Level FlightAware
02:08AM 13.1450 -73.4590 327° Northwest 440 506 34,000  Level FlightAware
02:08AM 13.1970 -73.4950 326° Northwest 440 506 34,000  Level FlightAware
02:09AM 13.2480 -73.5310 326° Northwest 440 506 34,000  Level FlightAware
02:09AM 13.3000 -73.5670 326° Northwest 440 506 34,000  Level FlightAware
02:10AM 13.3510 -73.6030 326° Northwest 440 506 34,000  Level FlightAware
02:11AM 13.4030 -73.6380 327° Northwest 440 506 34,000  Level FlightAware
02:14AM 13.6402 -73.8991 313° West  Level Estimated
02:15AM 13.7222 -73.9896 313° West  Level Estimated
02:16AM 13.8043 -74.0802 313° West  Level Estimated
02:17AM 13.8863 -74.1708 313° West  Level Estimated
02:18AM 13.9682 -74.2615 313° West  Level Estimated
02:19AM 14.0502 -74.3523 313° West  Level Estimated
02:20AM 14.1320 -74.4431 313° West  Level Estimated
02:21AM 14.2139 -74.5340 313° West  Level Estimated
02:22AM 14.2957 -74.6250 313° West  Level Estimated
02:23AM 14.3775 -74.7160 313° West  Level Estimated
02:24AM 14.4593 -74.8072 313° West  Level Estimated
02:25AM 14.5410 -74.8983 313° West  Level Estimated
02:26AM 14.6227 -74.9896 313° West  Level Estimated
02:27AM 14.7043 -75.0809 313° West  Level Estimated
02:28AM 14.7859 -75.1722 313° West  Level Estimated
02:29AM 14.8675 -75.2637 313° West  Level Estimated
02:30AM 14.9490 -75.3552 313° West  Level Estimated
02:31AM 15.0306 -75.4468 313° West  Level Estimated
02:32AM 15.1120 -75.5384 313° West  Level Estimated
02:33AM 15.1934 -75.6301 313° West  Level Estimated
02:34AM 15.2748 -75.7219 313° West  Level Estimated
02:35AM 15.3562 -75.8138 313° West  Level Estimated
02:36AM 15.4375 -75.9057 313° West  Level Estimated
02:37AM 15.5188 -75.9977 313° West  Level Estimated
02:38AM 15.6000 -76.0898 312° West  Level Estimated
02:39AM 15.6812 -76.1820 312° West  Level Estimated
02:40AM 15.7624 -76.2742 312° West  Level Estimated
02:41AM 15.8435 -76.3665 312° West  Level Estimated
02:42AM 15.9246 -76.4588 312° West  Level Estimated
02:43AM 16.0057 -76.5513 312° West  Level Estimated
02:44AM 16.0867 -76.6438 312° West  Level Estimated
02:45AM 16.1677 -76.7364 312° West  Level Estimated
02:46AM 16.2486 -76.8291 312° West  Level Estimated
02:47AM 16.3295 -76.9218 312° West  Level Estimated
02:48AM 16.4103 -77.0147 312° West  Level Estimated
02:49AM 16.4911 -77.1076 312° West  Level Estimated
02:50AM 16.5719 -77.2005 312° West  Level Estimated
02:51AM 16.6526 -77.2936 312° West  Level Estimated
02:52AM 16.7333 -77.3867 312° West  Level Estimated
02:53AM 16.8139 -77.4800 312° West  Level Estimated
02:54AM 16.8946 -77.5733 312° West  Level Estimated
02:55AM 16.9751 -77.6666 312° West  Level Estimated
02:56AM 17.0556 -77.7601 312° West  Level Estimated
02:57AM 17.1361 -77.8536 312° West  Level Estimated
02:58AM 17.2165 -77.9473 312° West  Level Estimated
02:59AM 17.2969 -78.0410 312° West  Level Estimated
03:00AM 17.3773 -78.1347 312° West  Level Estimated
03:01AM 17.4576 -78.2286 312° West  Level Estimated
03:02AM 17.5378 -78.3225 312° West  Level Estimated
03:03AM 17.6180 -78.4166 312° West  Level Estimated
03:04AM 17.6982 -78.5107 312° West  Level Estimated
03:05AM 17.7783 -78.6049 312° West  Level Estimated
03:06AM 17.8584 -78.6992 312° West  Level Estimated
03:07AM 17.9384 -78.7935 312° West  Level Estimated
03:08AM 18.0184 -78.8880 312° West  Level Estimated
03:09AM 18.0983 -78.9825 312° West  Level Estimated
03:10AM 18.1782 -79.0771 312° West  Level Estimated
03:11AM 18.2581 -79.1719 312° West  Level Estimated
03:12AM 18.3379 -79.2667 312° West  Level Estimated
03:13AM 18.4176 -79.3615 312° West  Level Estimated
03:14AM 18.4973 -79.4565 312° West  Level Estimated
03:15AM 18.5770 -79.5516 311° West  Level Estimated
03:16AM 18.6566 -79.6467 311° West  Level Estimated
03:17AM 18.7362 -79.7420 311° West  Level Estimated
03:18AM 18.8157 -79.8373 311° West  Level Estimated
03:19AM 18.8951 -79.9327 311° West  Level Estimated
03:20AM 18.9746 -80.0282 311° West  Level Estimated
03:21AM 19.0539 -80.1238 311° West  Level Estimated
03:22AM 19.1332 -80.2195 311° West  Level Estimated
03:23AM 19.2125 -80.3153 311° West  Level Estimated
03:24AM 19.2917 -80.4112 311° West  Level Estimated
03:25AM 19.3709 -80.5071 311° West  Level Estimated
03:26AM 19.4500 -80.6032 311° West  Level Estimated
03:27AM 19.5291 -80.6994 311° West  Level Estimated
03:28AM 19.6081 -80.7956 311° West  Level Estimated
03:29AM 19.6871 -80.8920 311° West  Level Estimated
03:30AM 19.7660 -80.9884 311° West  Level Estimated
03:31AM 19.8449 -81.0850 311° West  Level Estimated
03:32AM 19.9237 -81.1816 311° West  Level Estimated
03:33AM 20.0024 -81.2783 311° West  Level Estimated
03:34AM 20.0815 -81.3756 311° West  Level Estimated
03:35AM 20.1606 -81.4731 311° West  Level Estimated
03:36AM 20.2396 -81.5706 311° West  Level Estimated
03:37AM 20.3185 -81.6682 311° West  Level Estimated
03:38AM 20.3973 -81.7657 311° West  Level Estimated
03:39AM 20.4760 -81.8634 311° West  Level Estimated
03:40AM 20.5546 -81.9611 311° West  Level Estimated
03:41AM 20.6332 -82.0590 311° West  Level Estimated
03:42AM 20.7118 -82.1569 311° West  Level Estimated
03:43AM 20.7903 -82.2550 311° West  Level Estimated
03:44AM 20.8687 -82.3531 311° West  Level Estimated
03:45AM 20.9471 -82.4514 311° West  Level Estimated
03:45AM 19.8930 -83.8360 310° West 438 504 36,000  Level FlightAware
03:46AM 21.0254 -82.5497 310° West  Level Estimated
03:46AM 19.9200 -83.9500 284° West 436 502 36,000  Level FlightAware
03:47AM 21.1036 -82.6482 310° West  Level Estimated
03:47AM 19.9400 -84.0400 283° West 436 502 36,000  Level FlightAware
03:48AM 19.9570 -84.1140 284° West 439 505 36,000  Level FlightAware
03:48AM 19.9800 -84.1700 294° West 441 507 36,000  Level FlightAware
03:48AM 20.0010 -84.2080 300° West 441 507 36,000  Level FlightAware
03:49AM 20.0440 -84.2920 299° West 441 507 36,000  Level FlightAware
03:50AM 20.0750 -84.3520 299° West 441 507 36,000  Level FlightAware
03:50AM 20.1060 -84.4100 300° West 441 507 36,000  Level FlightAware
03:51AM 20.1490 -84.5350 290° West 449 517 36,000  Level FlightAware
03:52AM 20.1700 -84.6010 289° West 451 519 36,000  Level FlightAware
03:53AM 20.2130 -84.7460 288° West 453 521 36,000  Level FlightAware
03:53AM 20.2280 -84.8140 283° West 455 524 36,000  Level FlightAware
03:54AM 20.2470 -84.9040 283° West 454 522 36,000  Level FlightAware
03:55AM 20.2510 -84.9920 273° West 452 520 36,000  Level FlightAware
03:55AM 20.2550 -85.0630 273° West 451 519 36,000  Level FlightAware
03:56AM 20.2710 -85.1580 280° West 453 521 36,000  Level FlightAware
03:57AM 20.3270 -85.2370 307° West 457 526 36,000  Level FlightAware
03:57AM 20.3760 -85.2900 315° West 458 527 36,000  Level FlightAware
03:58AM 20.4230 -85.3390 316° Northwest 457 526 36,000  Level FlightAware
03:58AM 20.4780 -85.3980 315° West 456 525 36,000  Level FlightAware
03:59AM 20.5310 -85.4530 316° Northwest 454 522 36,000  Level FlightAware
04:00AM 20.5880 -85.5150 314° West 451 519 36,000  Level FlightAware
04:00AM 20.6320 -85.5620 315° West 451 519 36,000  Level FlightAware
04:01AM 20.6850 -85.6170 316° Northwest 447 514 36,000  Level FlightAware
04:01AM 20.7300 -85.6660 314° West 446 513 36,000  Level FlightAware
04:02AM 20.7840 -85.7230 315° West 445 512 36,000  Level FlightAware
04:02AM 20.8340 -85.7770 315° West 444 511 36,000  Level FlightAware
04:03AM 20.8910 -85.8380 315° West 440 506 36,000  Level FlightAware
04:04AM 20.9410 -85.8910 315° West 439 505 36,000  Level FlightAware
04:05AM 21.0180 -85.9730 315° West 439 505 36,000  Level FlightAware
04:05AM 21.0870 -86.0470 315° West 437 503 36,000  Level FlightAware
04:06AM 21.1340 -86.0970 315° West 435 501 36,000  Level FlightAware
04:07AM 21.1900 -86.1580 315° West 434 499 36,000  Level FlightAware
04:07AM 21.2520 -86.2230 316° Northwest 432 497 36,000  Level FlightAware
04:08AM 21.3030 -86.2790 314° West 431 496 36,000  Level FlightAware
04:08AM 21.3430 -86.3210 316° Northwest 429 494 36,000  Level FlightAware
04:09AM 21.4020 -86.3850 315° West 429 494 36,000  Level FlightAware
04:10AM 21.4490 -86.4360 315° West 429 494 36,000  Level FlightAware
04:10AM 21.5000 -86.4900 315° West 428 493 36,000  Level FlightAware
04:11AM 21.5530 -86.5470 315° West 429 494 36,000  Level FlightAware
04:11AM 21.5860 -86.5840 314° West 429 494 36,000  Level FlightAware
04:12AM 21.6350 -86.6360 315° West 430 495 36,000  Level FlightAware
04:12AM 21.6850 -86.6900 315° West 431 496 36,000  Level FlightAware
04:13AM 21.7360 -86.7450 315° West 432 497 36,000  Level FlightAware
04:14AM 21.7810 -86.7930 315° West 432 497 36,000  Level FlightAware
04:14AM 21.8380 -86.8550 315° West 432 497 36,000  Level FlightAware
04:15AM 21.9110 -86.9330 315° West 434 499 36,000  Level FlightAware
04:16AM 21.9600 -86.9870 314° West 434 499 36,000  Level FlightAware
04:16AM 22.0130 -87.0450 315° West 435 501 36,000  Level FlightAware
04:17AM 22.0690 -87.1070 314° West 434 499 36,000  Level FlightAware
04:18AM 22.1330 -87.1760 315° West 435 501 36,000  Level FlightAware
04:18AM 22.1910 -87.2390 315° West 434 499 36,000  Level FlightAware
04:19AM 22.2810 -87.3370 315° West 433 498 36,000  Level FlightAware
04:20AM 22.3350 -87.3970 314° West 432 497 36,000  Level FlightAware
04:21AM 22.3710 -87.4360 315° West 432 497 36,000  Level FlightAware
04:21AM 22.4210 -87.4900 315° West 431 496 36,000  Level FlightAware
04:22AM 22.4750 -87.5500 314° West 430 495 36,000  Level FlightAware
04:22AM 22.5340 -87.6140 315° West 430 495 36,000  Level FlightAware
04:23AM 22.5690 -87.6540 313° West 430 495 36,000  Level FlightAware
04:24AM 22.6560 -87.7490 315° West 430 495 36,000  Level FlightAware
04:25AM 22.7100 -87.8090 314° West 429 494 36,000  Level FlightAware
04:25AM 22.7660 -87.8700 315° West 429 494 36,000  Level FlightAware
04:26AM 22.8000 -87.9080 314° West 429 494 36,000  Level FlightAware
04:26AM 22.8170 -87.9270 314° West 429 494 36,000  Level FlightAware
04:27AM 22.9150 -88.0360 314° West 427 491 36,000  Level FlightAware
04:27AM 22.9540 -88.0790 315° West 427 491 36,000  Level FlightAware
04:28AM 23.0080 -88.1400 314° West 427 491 36,000  Level FlightAware
04:29AM 23.0540 -88.1900 315° West 426 490 36,000  Level FlightAware
04:29AM 23.1000 -88.2430 313° West 426 490 36,000  Level FlightAware
04:30AM 23.1600 -88.3090 315° West 427 491 36,000  Level FlightAware
04:30AM 23.1960 -88.3490 314° West 426 490 36,000  Level FlightAware
04:31AM 23.2530 -88.4140 314° West 427 491 36,000  Level FlightAware
04:32AM 23.2980 -88.4630 315° West 426 490 36,000  Level FlightAware
04:32AM 23.3300 -88.5000 313° West 426 490 36,000  Level FlightAware
04:33AM 23.3450 -88.5170 314° West 425 489 36,000  Level FlightAware
04:33AM 23.4520 -88.6380 314° West 422 486 36,000  Level FlightAware
04:34AM 23.4850 -88.6750 314° West 422 486 36,000  Level FlightAware
04:35AM 23.5060 -88.6990 314° West 422 486 36,000  Level FlightAware
04:35AM 23.5630 -88.7630 314° West 420 483 36,000  Level FlightAware
04:36AM 23.5950 -88.8000 313° West 420 483 36,000  Level FlightAware
04:36AM 23.6470 -88.8590 314° West 420 483 36,000  Level FlightAware
04:37AM 23.6940 -88.9130 314° West 420 483 36,000  Level FlightAware
04:38AM 23.7460 -88.9730 313° West 423 487 36,000  Level FlightAware
04:38AM 23.7890 -89.0210 314° West 423 487 36,000  Level FlightAware
04:39AM 23.8340 -89.0730 313° West 424 488 36,000  Level FlightAware
04:39AM 23.8900 -89.1360 314° West 425 489 36,000  Level FlightAware
04:41AM 23.9830 -89.2430 314° West 428 493 36,000  Level FlightAware
04:41AM 24.0190 -89.2840 314° West 428 493 36,000  Level FlightAware
04:42AM 24.0390 -89.3070 314° West 428 493 36,000  Level FlightAware
04:43AM 24.1100 -89.3910 313° West 428 493 36,000  Level FlightAware
04:43AM 24.1510 -89.4390 313° West 428 493 36,000  Level FlightAware
04:44AM 24.2180 -89.5140 314° West 427 491 36,000  Level FlightAware
04:44AM 24.2660 -89.5690 314° West 427 491 36,000  Level FlightAware
04:45AM 24.3040 -89.6130 313° West 427 491 36,000  Level FlightAware
04:46AM 24.3510 -89.6690 313° West 427 491 36,000  Level FlightAware
04:46AM 24.4300 -89.7610 313° West 426 490 36,000  Level FlightAware
04:47AM 24.4710 -89.8090 313° West 426 490 36,000  Level FlightAware
04:48AM 24.5260 -89.8740 313° West 426 490 36,000  Level FlightAware
04:49AM 24.5960 -89.9560 313° West 426 490 36,000  Level FlightAware
04:50AM 24.6510 -90.0200 313° West 426 490 36,000  Level FlightAware
04:50AM 24.7060 -90.0850 313° West 426 490 36,000  Level FlightAware
04:51AM 24.7440 -90.1310 312° West 426 490 36,000  Level FlightAware
04:52AM 24.7860 -90.1800 313° West 426 490 36,000  Level FlightAware
04:52AM 24.8270 -90.2280 313° West 426 490 36,000  Level FlightAware
04:53AM 24.8830 -90.2940 313° West 426 490 36,000  Level FlightAware
04:54AM 24.9510 -90.3750 313° West 426 490 36,000  Level FlightAware
04:55AM 24.9940 -90.4250 314° West 426 490 36,000  Level FlightAware
04:55AM 25.0480 -90.4900 313° West 426 490 36,000  Level FlightAware
04:56AM 25.0620 -90.5070 312° West 426 490 36,000  Level FlightAware
04:59AM 25.3379 -90.7630 320° Northwest  Level Estimated
05:00AM 25.4308 -90.8496 320° Northwest  Level Estimated
05:01AM 25.5237 -90.9363 320° Northwest  Level Estimated
05:02AM 25.6165 -91.0231 320° Northwest  Level Estimated
05:03AM 25.7093 -91.1101 320° Northwest  Level Estimated
05:04AM 25.8020 -91.1972 320° Northwest  Level Estimated
05:05AM 25.8946 -91.2844 320° Northwest  Level Estimated
05:06AM 25.9872 -91.3718 320° Northwest  Level Estimated
05:07AM 26.0798 -91.4593 320° Northwest  Level Estimated
05:08AM 26.1723 -91.5470 320° Northwest  Level Estimated
05:09AM 26.2647 -91.6348 320° Northwest  Level Estimated
05:10AM 26.3571 -91.7227 320° Northwest  Level Estimated
05:11AM 26.4494 -91.8108 320° Northwest  Level Estimated
05:12AM 26.5417 -91.8990 319° Northwest  Level Estimated
05:13AM 26.6339 -91.9874 319° Northwest  Level Estimated
05:13AM 26.9861 -91.7978 319° Northwest 415 478 36,000  Level Houston Center
05:14AM 26.7261 -92.0759 319° Northwest  Level Estimated
05:14AM 27.0794 -91.8736 324° Northwest 414 476 35,900  Level Houston Center
05:15AM 26.8182 -92.1645 319° Northwest  Level Estimated
05:16AM 26.9103 -92.2533 319° Northwest  Level Estimated
05:17AM 27.0023 -92.3422 319° Northwest  Level Estimated
05:18AM 27.0942 -92.4313 319° Northwest  Level Estimated
05:20AM 27.6557 -92.4615 324° Northwest 403 464 36,000  Level FlightAware ADS-B
05:21AM 27.6970 -92.5051 317° Northwest 401 461 36,000  Level FlightAware ADS-B
05:21AM 27.7381 -92.5485 317° Northwest 400 460 36,000  Level FlightAware ADS-B
05:24AM 27.9550 -92.7789 317° Northwest 395 455 36,000 -60 Level FlightAware ADS-B
05:25AM 27.9839 -92.8131 317° Northwest 395 455 35,900 -60 Descending Houston Center
05:26AM 28.0628 -92.8967 317° Northwest 391 450 35,900  Level Houston Center
05:27AM 28.1422 -92.9825 316° Northwest 394 453 35,900  Level Houston Center
05:28AM 28.2217 -93.0672 317° Northwest 391 450 35,900  Level Houston Center
05:29AM 28.3006 -93.1517 317° Northwest 391 450 35,900  Level Houston Center
05:30AM 28.3794 -93.2358 317° Northwest 390 449 35,900  Level Houston Center
05:31AM 28.4561 -93.3178 317° Northwest 389 448 35,900 -420 Level Houston Center
05:32AM 28.5358 -93.4058 316° Northwest 396 456 35,100 -960 Descending Houston Center
05:33AM 28.6208 -93.4969 317° Northwest 406 467 34,000 -1,020 Descending Houston Center
05:34AM 28.7022 -93.5875 316° Northwest 418 481 33,100 -1,620 Descending Houston Center
05:40AM 29.2772 -94.2078 316° Northwest 410 472 22,800 -1,800 Descending FlightAware ADS-B
05:41AM 29.3184 -94.2528 316° Northwest 405 466 21,700 -2,520 Descending FlightAware ADS-B
05:41AM 29.3585 -94.2974 316° Northwest 402 463 20,300 -2,820 Descending FlightAware ADS-B
05:42AM 29.3992 -94.3419 316° Northwest 397 457 18,900 -2,580 Descending FlightAware ADS-B
05:42AM 29.4392 -94.3860 316° Northwest 390 449 17,700 -2,400 Descending FlightAware ADS-B
05:43AM 29.4780 -94.4289 316° Northwest 383 441 16,500 -2,100 Descending FlightAware ADS-B
05:43AM 29.5151 -94.4699 316° Northwest 361 415 15,600 -1,980 Descending FlightAware ADS-B
05:43AM 29.5336 -94.4905 316° Northwest 354 407 15,000 -2,220 Descending FlightAware ADS-B
05:44AM 29.5506 -94.5096 316° Northwest 351 404 14,500 -2,400 Descending FlightAware ADS-B
05:44AM 29.5698 -94.5307 316° Northwest 349 402 13,800 -2,400 Descending FlightAware ADS-B
05:44AM 29.5862 -94.5486 316° Northwest 344 396 13,300 -2,040 Descending FlightAware ADS-B
05:44AM 29.6044 -94.5688 316° Northwest 332 382 12,800 -1,560 Descending FlightAware ADS-B
05:45AM 29.6197 -94.5858 316° Northwest 320 368 12,500 -1,200 Descending FlightAware ADS-B
05:45AM 29.6354 -94.6030 317° Northwest 306 352 12,200 -1,440 Descending FlightAware ADS-B
05:45AM 29.6505 -94.6196 316° Northwest 294 338 11,800 -1,920 Descending FlightAware ADS-B
05:45AM 29.6730 -94.6436 317° Northwest 280 322 11,000 -2,040 Descending FlightAware ADS-B
05:46AM 29.6797 -94.6507 317° Northwest 279 321 10,800 -2,340 Descending FlightAware ADS-B
05:46AM 29.6977 -94.6702 317° Northwest 277 319 10,000 -2,640 Descending FlightAware ADS-B
05:46AM 29.7081 -94.6817 316° Northwest 276 318 9,500 -2,820 Descending FlightAware ADS-B
05:46AM 29.7216 -94.6972 315° West 277 319 8,800 -2,520 Descending FlightAware ADS-B
05:47AM 29.7352 -94.7128 315° West 276 318 8,200 -2,700 Descending FlightAware ADS-B
05:47AM 29.7396 -94.7178 316° Northwest 277 319 7,900 -2,400 Descending FlightAware ADS-B
05:47AM 29.7496 -94.7288 316° Northwest 274 315 7,600 -1,620 Descending FlightAware ADS-B
05:47AM 29.7631 -94.7439 316° Northwest 264 304 7,200 -1,800 Descending FlightAware ADS-B
05:47AM 29.7765 -94.7586 316° Northwest 257 296 6,700 -1,800 Descending FlightAware ADS-B
05:48AM 29.7896 -94.7727 317° Northwest 250 288 6,300 -1,620 Descending FlightAware ADS-B
05:48AM 29.8019 -94.7863 316° Northwest 241 277 5,900 -1,320 Descending FlightAware ADS-B
05:48AM 29.8119 -94.7973 316° Northwest 235 270 5,700 -720 Descending FlightAware ADS-B
05:48AM 29.8234 -94.8101 316° Northwest 226 260 5,600 -660 Descending FlightAware ADS-B
05:49AM 29.8339 -94.8215 317° Northwest 219 252 5,400 -840 Descending FlightAware ADS-B
05:49AM 29.8450 -94.8337 316° Northwest 216 249 5,200 -1,020 Descending FlightAware ADS-B
05:49AM 29.8557 -94.8459 315° West 214 246 4,900 -1,200 Descending FlightAware ADS-B
05:49AM 29.8667 -94.8578 317° Northwest 215 247 4,600 -1,200 Descending FlightAware ADS-B
05:50AM 29.8775 -94.8701 315° West 216 249 4,300 -1,440 Descending FlightAware ADS-B
05:50AM 29.8857 -94.8790 317° Northwest 218 251 4,000 -1,140 Descending FlightAware ADS-B
05:50AM 29.8969 -94.8912 317° Northwest 222 255 3,800 -600 Descending FlightAware ADS-B
05:50AM 29.9082 -94.9037 316° Northwest 226 260 3,700 -240 Descending FlightAware ADS-B
05:50AM 29.9169 -94.9131 317° Northwest 226 260 3,700  Level FlightAware ADS-B
05:51AM 29.9286 -94.9260 316° Northwest 233 268 3,700  Level FlightAware ADS-B
05:51AM 29.9401 -94.9389 316° Northwest 235 270 3,700  Level FlightAware ADS-B
05:51AM 29.9523 -94.9525 316° Northwest 239 275 3,700  Level FlightAware ADS-B
05:51AM 29.9647 -94.9664 316° Northwest 239 275 3,700  Level FlightAware ADS-B
05:52AM 29.9768 -94.9797 316° Northwest 240 276 3,700  Level FlightAware ADS-B
05:52AM 29.9825 -94.9861 316° Northwest 240 276 3,700  Level FlightAware ADS-B
05:52AM 29.9889 -94.9931 316° Northwest 239 275 3,700  Level FlightAware ADS-B
05:52AM 29.9971 -95.0022 316° Northwest 239 275 3,700  Level FlightAware ADS-B
05:52AM 30.0012 -95.0069 315° West 240 276 3,700  Level FlightAware ADS-B
05:52AM 30.0088 -95.0155 316° Northwest 241 277 3,700  Level FlightAware ADS-B
05:52AM 30.0115 -95.0187 314° West 240 276 3,700  Level FlightAware ADS-B
05:53AM 30.0138 -95.0220 309° West 238 274 3,700  Level FlightAware ADS-B
05:53AM 30.0155 -95.0254 300° West 236 272 3,700  Level FlightAware ADS-B
05:53AM 30.0170 -95.0295 293° West 231 266 3,700  Level FlightAware ADS-B
05:53AM 30.0208 -95.0488 283° West 222 255 3,700  Level FlightAware ADS-B
05:53AM 30.0215 -95.0608 274° West 217 250 3,700  Level FlightAware ADS-B
05:53AM 30.0217 -95.0747 271° West 215 247 3,700  Level FlightAware ADS-B
05:53AM 30.0217 -95.0718 91° East 239 275 3,700 360 Level FlightAware ADS-B
05:54AM 30.0213 -95.0918 269° West 205 236 3,800 240 Climbing FlightAware ADS-B
05:54AM 30.0210 -95.1010 268° West 198 228 3,800 -720 Level FlightAware ADS-B
05:54AM 30.0210 -95.1106 270° West 193 222 3,600 -1,200 Descending FlightAware ADS-B
05:54AM 30.0210 -95.1131 269° West 192 221 3,600 -840 Level FlightAware ADS-B
05:54AM 30.0210 -95.1258 270° West 189 217 3,400 -900 Descending FlightAware ADS-B
05:54AM 30.0210 -95.1322 270° West 189 217 3,300 -840 Descending FlightAware ADS-B
05:54AM 30.0212 -95.1408 272° West 191 220 3,200 -900 Descending FlightAware ADS-B
05:55AM 30.0211 -95.1523 269° West 193 222 3,000 -1,500 Descending FlightAware ADS-B
05:55AM 30.0213 -95.1543 278° West 193 222 2,900 -1,200 Descending FlightAware ADS-B
05:55AM 30.0213 -95.1680 270° West 193 222 2,700 -1,020 Descending FlightAware ADS-B
05:55AM 30.0215 -95.1779 271° West 190 219 2,500 -1,200 Descending FlightAware ADS-B
05:55AM 30.0215 -95.1830 270° West 187 215 2,400 -720 Descending FlightAware ADS-B
05:55AM 30.0215 -95.1873 270° West 187 215 2,400 -900 Level FlightAware ADS-B
05:55AM 30.0215 -95.2022 270° West 183 211 2,100 -1,260 Descending FlightAware ADS-B
05:55AM 30.0215 -95.2110 270° West 179 206 1,900 -900 Descending FlightAware ADS-B
05:56AM 30.0213 -95.2218 269° West 175 201 1,800 -900 Descending FlightAware ADS-B
05:56AM 30.0213 -95.2359 270° West 174 200 1,500 -960 Descending FlightAware ADS-B
05:56AM 30.0213 -95.2448 270° West 160 184 1,400 -840 Descending FlightAware ADS-B
05:56AM 30.0213 -95.2602 270° West 156 180 1,100 -900 Descending FlightAware ADS-B
05:57AM 30.0215 -95.2731 271° West 157 181 900 -900 Descending FlightAware ADS-B
05:57AM 30.0215 -95.2838 270° West 158 182 700 -900 Descending FlightAware ADS-B
05:57AM 30.0215 -95.2966 270° West 161 185 500 -840 Descending FlightAware ADS-B
05:57AM 30.0215 -95.3026 270° West 161 185 400 -840 Descending FlightAware ADS-B
05:57AM 30.0215 -95.3095 270° West 163 188 300 -780 Descending FlightAware ADS-B
05:58AM 30.0215 -95.3227 270° West 158 182 -1,200 Descending FlightAware ADS-B